sensor_id;sensor_type;location;lat;lon;timestamp;P1;durP1;ratioP1;P2;durP2;ratioP2
70920;SDS011;58572;48.110;19.838;2023-03-04T00:01:34;35.38;;;14.13;;
70920;SDS011;58572;48.110;19.838;2023-03-04T00:04:01;37.03;;;15.40;;
70920;SDS011;58572;48.110;19.838;2023-03-04T00:06:28;34.53;;;14.23;;
70920;SDS011;58572;48.110;19.838;2023-03-04T00:08:55;32.28;;;14.18;;
70920;SDS011;58572;48.110;19.838;2023-03-04T00:11:22;34.08;;;13.95;;
70920;SDS011;58572;48.110;19.838;2023-03-04T00:13:49;32.80;;;13.75;;
70920;SDS011;58572;48.110;19.838;2023-03-04T00:16:16;35.13;;;14.50;;
70920;SDS011;58572;48.110;19.838;2023-03-04T00:18:45;40.10;;;14.93;;
70920;SDS011;58572;48.110;19.838;2023-03-04T00:21:12;33.25;;;14.55;;
70920;SDS011;58572;48.110;19.838;2023-03-04T00:23:39;34.25;;;14.50;;
70920;SDS011;58572;48.110;19.838;2023-03-04T00:26:07;37.33;;;15.23;;
70920;SDS011;58572;48.110;19.838;2023-03-04T00:28:34;29.90;;;12.60;;
70920;SDS011;58572;48.110;19.838;2023-03-04T00:31:02;33.65;;;14.15;;
70920;SDS011;58572;48.110;19.838;2023-03-04T00:33:29;31.67;;;14.05;;
70920;SDS011;58572;48.110;19.838;2023-03-04T00:35:58;33.60;;;13.88;;
70920;SDS011;58572;48.110;19.838;2023-03-04T00:38:25;33.53;;;13.98;;
70920;SDS011;58572;48.110;19.838;2023-03-04T00:40:52;34.25;;;13.13;;
70920;SDS011;58572;48.110;19.838;2023-03-04T00:43:20;34.03;;;13.50;;
70920;SDS011;58572;48.110;19.838;2023-03-04T00:45:47;35.83;;;13.63;;
70920;SDS011;58572;48.110;19.838;2023-03-04T00:48:14;31.88;;;12.85;;
70920;SDS011;58572;48.110;19.838;2023-03-04T00:50:41;29.67;;;12.13;;
70920;SDS011;58572;48.110;19.838;2023-03-04T00:53:10;31.98;;;13.00;;
70920;SDS011;58572;48.110;19.838;2023-03-04T00:55:37;32.00;;;13.48;;
70920;SDS011;58572;48.110;19.838;2023-03-04T00:58:04;32.17;;;13.13;;
70920;SDS011;58572;48.110;19.838;2023-03-04T01:00:31;30.80;;;13.23;;
70920;SDS011;58572;48.110;19.838;2023-03-04T01:02:58;32.50;;;13.95;;
70920;SDS011;58572;48.110;19.838;2023-03-04T01:05:25;30.33;;;12.15;;
70920;SDS011;58572;48.110;19.838;2023-03-04T01:07:52;33.05;;;13.50;;
70920;SDS011;58572;48.110;19.838;2023-03-04T01:10:21;35.30;;;15.05;;
70920;SDS011;58572;48.110;19.838;2023-03-04T01:12:48;33.45;;;13.35;;
70920;SDS011;58572;48.110;19.838;2023-03-04T01:15:15;31.65;;;13.02;;
70920;SDS011;58572;48.110;19.838;2023-03-04T01:17:42;30.95;;;12.57;;
70920;SDS011;58572;48.110;19.838;2023-03-04T01:20:10;35.40;;;13.95;;
70920;SDS011;58572;48.110;19.838;2023-03-04T01:22:38;34.75;;;13.73;;
70920;SDS011;58572;48.110;19.838;2023-03-04T01:25:05;31.58;;;14.18;;
70920;SDS011;58572;48.110;19.838;2023-03-04T01:27:34;31.60;;;13.55;;
70920;SDS011;58572;48.110;19.838;2023-03-04T01:30:01;38.03;;;14.05;;
70920;SDS011;58572;48.110;19.838;2023-03-04T01:32:28;34.78;;;14.57;;
70920;SDS011;58572;48.110;19.838;2023-03-04T01:34:55;31.92;;;12.15;;
70920;SDS011;58572;48.110;19.838;2023-03-04T01:37:22;33.03;;;14.00;;
70920;SDS011;58572;48.110;19.838;2023-03-04T01:39:49;31.77;;;13.88;;
70920;SDS011;58572;48.110;19.838;2023-03-04T01:42:17;32.10;;;13.55;;
70920;SDS011;58572;48.110;19.838;2023-03-04T01:44:48;29.75;;;13.18;;
70920;SDS011;58572;48.110;19.838;2023-03-04T01:47:16;31.00;;;12.30;;
70920;SDS011;58572;48.110;19.838;2023-03-04T01:52:12;30.55;;;12.27;;
70920;SDS011;58572;48.110;19.838;2023-03-04T01:54:39;31.27;;;12.00;;
70920;SDS011;58572;48.110;19.838;2023-03-04T01:57:08;27.25;;;12.95;;
70920;SDS011;58572;48.110;19.838;2023-03-04T01:59:41;35.22;;;13.23;;
70920;SDS011;58572;48.110;19.838;2023-03-04T02:02:10;28.55;;;12.45;;
70920;SDS011;58572;48.110;19.838;2023-03-04T02:04:38;35.25;;;12.88;;
70920;SDS011;58572;48.110;19.838;2023-03-04T02:07:07;29.02;;;12.38;;
70920;SDS011;58572;48.110;19.838;2023-03-04T02:09:34;29.95;;;12.57;;
70920;SDS011;58572;48.110;19.838;2023-03-04T02:12:02;28.45;;;12.15;;
70920;SDS011;58572;48.110;19.838;2023-03-04T02:14:29;31.38;;;12.50;;
70920;SDS011;58572;48.110;19.838;2023-03-04T02:16:56;30.45;;;11.70;;
70920;SDS011;58572;48.110;19.838;2023-03-04T02:19:35;29.52;;;13.10;;
70920;SDS011;58572;48.110;19.838;2023-03-04T02:22:08;34.20;;;13.60;;
70920;SDS011;58572;48.110;19.838;2023-03-04T02:24:36;30.83;;;12.95;;
70920;SDS011;58572;48.110;19.838;2023-03-04T02:27:08;28.63;;;12.30;;
70920;SDS011;58572;48.110;19.838;2023-03-04T02:29:35;31.23;;;13.25;;
70920;SDS011;58572;48.110;19.838;2023-03-04T02:32:02;29.27;;;13.50;;
70920;SDS011;58572;48.110;19.838;2023-03-04T02:34:30;31.70;;;13.43;;
70920;SDS011;58572;48.110;19.838;2023-03-04T02:37:00;36.55;;;13.27;;
70920;SDS011;58572;48.110;19.838;2023-03-04T02:41:57;27.98;;;11.98;;
70920;SDS011;58572;48.110;19.838;2023-03-04T02:44:27;32.03;;;12.02;;
70920;SDS011;58572;48.110;19.838;2023-03-04T02:46:56;34.05;;;12.15;;
70920;SDS011;58572;48.110;19.838;2023-03-04T02:49:24;31.38;;;12.63;;
70920;SDS011;58572;48.110;19.838;2023-03-04T02:51:57;33.22;;;12.85;;
70920;SDS011;58572;48.110;19.838;2023-03-04T02:54:26;27.60;;;11.70;;
70920;SDS011;58572;48.110;19.838;2023-03-04T02:56:54;31.92;;;12.95;;
70920;SDS011;58572;48.110;19.838;2023-03-04T02:59:23;27.35;;;12.40;;
70920;SDS011;58572;48.110;19.838;2023-03-04T03:01:51;26.40;;;11.50;;
70920;SDS011;58572;48.110;19.838;2023-03-04T03:04:18;30.60;;;12.45;;
70920;SDS011;58572;48.110;19.838;2023-03-04T03:06:46;30.35;;;12.90;;
70920;SDS011;58572;48.110;19.838;2023-03-04T03:09:13;31.23;;;12.27;;
70920;SDS011;58572;48.110;19.838;2023-03-04T03:11:41;29.95;;;11.85;;
70920;SDS011;58572;48.110;19.838;2023-03-04T03:14:08;31.35;;;13.90;;
70920;SDS011;58572;48.110;19.838;2023-03-04T03:16:35;28.10;;;11.40;;
70920;SDS011;58572;48.110;19.838;2023-03-04T03:19:04;24.50;;;11.27;;
70920;SDS011;58572;48.110;19.838;2023-03-04T03:21:31;24.25;;;11.45;;
70920;SDS011;58572;48.110;19.838;2023-03-04T03:23:58;28.20;;;10.95;;
70920;SDS011;58572;48.110;19.838;2023-03-04T03:26:25;30.38;;;11.93;;
70920;SDS011;58572;48.110;19.838;2023-03-04T03:28:52;32.28;;;11.55;;
70920;SDS011;58572;48.110;19.838;2023-03-04T03:31:19;27.52;;;11.40;;
70920;SDS011;58572;48.110;19.838;2023-03-04T03:33:46;29.83;;;12.15;;
70920;SDS011;58572;48.110;19.838;2023-03-04T03:36:15;26.42;;;11.63;;
70920;SDS011;58572;48.110;19.838;2023-03-04T03:38:42;28.05;;;11.85;;
70920;SDS011;58572;48.110;19.838;2023-03-04T03:41:09;25.98;;;11.40;;
70920;SDS011;58572;48.110;19.838;2023-03-04T03:43:36;27.33;;;11.05;;
70920;SDS011;58572;48.110;19.838;2023-03-04T03:46:03;32.03;;;11.02;;
70920;SDS011;58572;48.110;19.838;2023-03-04T03:48:30;22.30;;;10.02;;
70920;SDS011;58572;48.110;19.838;2023-03-04T03:50:57;24.13;;;10.55;;
70920;SDS011;58572;48.110;19.838;2023-03-04T03:53:26;31.48;;;12.55;;
70920;SDS011;58572;48.110;19.838;2023-03-04T03:55:53;23.08;;;10.45;;
70920;SDS011;58572;48.110;19.838;2023-03-04T03:58:20;27.10;;;11.10;;
70920;SDS011;58572;48.110;19.838;2023-03-04T04:00:47;25.52;;;11.07;;
70920;SDS011;58572;48.110;19.838;2023-03-04T04:03:14;26.98;;;10.25;;
70920;SDS011;58572;48.110;19.838;2023-03-04T04:08:10;20.23;;;10.20;;
70920;SDS011;58572;48.110;19.838;2023-03-04T04:10:40;27.90;;;11.43;;
70920;SDS011;58572;48.110;19.838;2023-03-04T04:13:07;27.45;;;11.18;;
70920;SDS011;58572;48.110;19.838;2023-03-04T04:15:34;26.45;;;10.60;;
70920;SDS011;58572;48.110;19.838;2023-03-04T04:20:29;24.83;;;11.20;;
70920;SDS011;58572;48.110;19.838;2023-03-04T04:22:56;23.83;;;10.50;;
70920;SDS011;58572;48.110;19.838;2023-03-04T04:25:23;23.23;;;11.25;;
70920;SDS011;58572;48.110;19.838;2023-03-04T04:27:52;22.67;;;10.70;;
70920;SDS011;58572;48.110;19.838;2023-03-04T04:30:19;25.42;;;11.95;;
70920;SDS011;58572;48.110;19.838;2023-03-04T04:32:46;23.88;;;9.95;;
70920;SDS011;58572;48.110;19.838;2023-03-04T04:35:13;33.05;;;12.50;;
70920;SDS011;58572;48.110;19.838;2023-03-04T04:37:40;26.80;;;9.98;;
70920;SDS011;58572;48.110;19.838;2023-03-04T04:40:07;27.33;;;11.27;;
70920;SDS011;58572;48.110;19.838;2023-03-04T04:42:35;32.00;;;11.82;;
70920;SDS011;58572;48.110;19.838;2023-03-04T04:45:07;26.00;;;10.65;;
70920;SDS011;58572;48.110;19.838;2023-03-04T04:47:35;26.58;;;10.43;;
70920;SDS011;58572;48.110;19.838;2023-03-04T04:50:02;25.02;;;10.45;;
70920;SDS011;58572;48.110;19.838;2023-03-04T04:52:29;26.67;;;11.48;;
70920;SDS011;58572;48.110;19.838;2023-03-04T04:54:56;26.30;;;10.95;;
70920;SDS011;58572;48.110;19.838;2023-03-04T04:57:23;26.23;;;11.45;;
70920;SDS011;58572;48.110;19.838;2023-03-04T04:59:50;26.35;;;11.23;;
70920;SDS011;58572;48.110;19.838;2023-03-04T05:02:19;27.63;;;11.95;;
70920;SDS011;58572;48.110;19.838;2023-03-04T05:04:46;27.25;;;11.52;;
70920;SDS011;58572;48.110;19.838;2023-03-04T05:07:12;26.52;;;10.35;;
70920;SDS011;58572;48.110;19.838;2023-03-04T05:09:39;24.20;;;10.80;;
70920;SDS011;58572;48.110;19.838;2023-03-04T05:12:07;22.58;;;9.88;;
70920;SDS011;58572;48.110;19.838;2023-03-04T05:14:34;27.08;;;9.75;;
70920;SDS011;58572;48.110;19.838;2023-03-04T05:17:01;22.90;;;9.15;;
70920;SDS011;58572;48.110;19.838;2023-03-04T05:19:29;25.33;;;11.27;;
70920;SDS011;58572;48.110;19.838;2023-03-04T05:21:56;24.65;;;10.32;;
70920;SDS011;58572;48.110;19.838;2023-03-04T05:24:23;24.05;;;10.43;;
70920;SDS011;58572;48.110;19.838;2023-03-04T05:26:50;22.85;;;10.60;;
70920;SDS011;58572;48.110;19.838;2023-03-04T05:29:17;29.92;;;12.85;;
70920;SDS011;58572;48.110;19.838;2023-03-04T05:31:45;24.88;;;10.57;;
70920;SDS011;58572;48.110;19.838;2023-03-04T05:34:15;25.25;;;10.20;;
70920;SDS011;58572;48.110;19.838;2023-03-04T05:36:43;29.02;;;11.27;;
70920;SDS011;58572;48.110;19.838;2023-03-04T05:39:10;36.20;;;14.45;;
70920;SDS011;58572;48.110;19.838;2023-03-04T05:41:37;32.33;;;12.60;;
70920;SDS011;58572;48.110;19.838;2023-03-04T05:44:04;26.90;;;11.02;;
70920;SDS011;58572;48.110;19.838;2023-03-04T05:46:31;27.88;;;12.55;;
70920;SDS011;58572;48.110;19.838;2023-03-04T05:48:58;33.65;;;14.55;;
70920;SDS011;58572;48.110;19.838;2023-03-04T05:51:25;33.35;;;13.40;;
70920;SDS011;58572;48.110;19.838;2023-03-04T05:53:54;32.45;;;13.68;;
70920;SDS011;58572;48.110;19.838;2023-03-04T05:56:21;26.42;;;12.00;;
70920;SDS011;58572;48.110;19.838;2023-03-04T05:58:48;33.55;;;12.38;;
70920;SDS011;58572;48.110;19.838;2023-03-04T06:01:15;32.20;;;12.48;;
70920;SDS011;58572;48.110;19.838;2023-03-04T06:03:42;40.40;;;15.05;;
70920;SDS011;58572;48.110;19.838;2023-03-04T06:06:12;31.67;;;13.02;;
70920;SDS011;58572;48.110;19.838;2023-03-04T06:08:39;33.45;;;13.02;;
70920;SDS011;58572;48.110;19.838;2023-03-04T06:11:08;30.45;;;12.93;;
70920;SDS011;58572;48.110;19.838;2023-03-04T06:13:35;32.85;;;13.60;;
70920;SDS011;58572;48.110;19.838;2023-03-04T06:16:02;28.70;;;13.15;;
70920;SDS011;58572;48.110;19.838;2023-03-04T06:18:29;30.98;;;13.15;;
70920;SDS011;58572;48.110;19.838;2023-03-04T06:20:56;32.28;;;12.30;;
70920;SDS011;58572;48.110;19.838;2023-03-04T06:23:24;38.85;;;16.48;;
70920;SDS011;58572;48.110;19.838;2023-03-04T06:25:52;32.63;;;13.82;;
70920;SDS011;58572;48.110;19.838;2023-03-04T06:28:20;33.90;;;13.30;;
70920;SDS011;58572;48.110;19.838;2023-03-04T06:30:50;39.00;;;14.23;;
70920;SDS011;58572;48.110;19.838;2023-03-04T06:33:17;32.25;;;13.65;;
70920;SDS011;58572;48.110;19.838;2023-03-04T06:35:44;29.45;;;12.15;;
70920;SDS011;58572;48.110;19.838;2023-03-04T06:38:11;32.78;;;12.75;;
70920;SDS011;58572;48.110;19.838;2023-03-04T06:40:38;29.23;;;11.60;;
70920;SDS011;58572;48.110;19.838;2023-03-04T06:43:05;32.65;;;13.25;;
70920;SDS011;58572;48.110;19.838;2023-03-04T06:45:34;27.58;;;11.00;;
70920;SDS011;58572;48.110;19.838;2023-03-04T06:48:01;28.88;;;11.23;;
70920;SDS011;58572;48.110;19.838;2023-03-04T06:50:28;29.98;;;11.50;;
70920;SDS011;58572;48.110;19.838;2023-03-04T06:52:55;26.50;;;9.98;;
70920;SDS011;58572;48.110;19.838;2023-03-04T06:55:22;26.02;;;10.43;;
70920;SDS011;58572;48.110;19.838;2023-03-04T06:57:49;26.15;;;10.30;;
70920;SDS011;58572;48.110;19.838;2023-03-04T07:00:17;27.30;;;11.43;;
70920;SDS011;58572;48.110;19.838;2023-03-04T07:02:46;24.63;;;9.63;;
70920;SDS011;58572;48.110;19.838;2023-03-04T07:05:13;23.83;;;9.25;;
70920;SDS011;58572;48.110;19.838;2023-03-04T07:07:40;22.75;;;9.20;;
70920;SDS011;58572;48.110;19.838;2023-03-04T07:10:08;22.42;;;9.27;;
70920;SDS011;58572;48.110;19.838;2023-03-04T07:12:36;21.70;;;7.93;;
70920;SDS011;58572;48.110;19.838;2023-03-04T07:15:03;20.15;;;7.97;;
70920;SDS011;58572;48.110;19.838;2023-03-04T07:20:00;21.50;;;7.72;;
70920;SDS011;58572;48.110;19.838;2023-03-04T07:22:27;18.27;;;7.82;;
70920;SDS011;58572;48.110;19.838;2023-03-04T07:24:54;21.90;;;9.38;;
70920;SDS011;58572;48.110;19.838;2023-03-04T07:27:21;28.58;;;7.82;;
70920;SDS011;58572;48.110;19.838;2023-03-04T07:29:48;22.90;;;8.80;;
70920;SDS011;58572;48.110;19.838;2023-03-04T07:32:15;22.38;;;7.75;;
70920;SDS011;58572;48.110;19.838;2023-03-04T07:34:42;21.58;;;7.70;;
70920;SDS011;58572;48.110;19.838;2023-03-04T07:37:10;24.48;;;8.57;;
70920;SDS011;58572;48.110;19.838;2023-03-04T07:39:37;3.72;;;2.40;;
70920;SDS011;58572;48.110;19.838;2023-03-04T07:42:04;21.10;;;7.57;;
70920;SDS011;58572;48.110;19.838;2023-03-04T07:44:31;21.13;;;7.72;;
70920;SDS011;58572;48.110;19.838;2023-03-04T07:46:58;22.15;;;7.63;;
70920;SDS011;58572;48.110;19.838;2023-03-04T07:49:25;21.20;;;8.40;;
70920;SDS011;58572;48.110;19.838;2023-03-04T07:51:52;19.27;;;7.53;;
70920;SDS011;58572;48.110;19.838;2023-03-04T07:54:21;8.32;;;4.15;;
70920;SDS011;58572;48.110;19.838;2023-03-04T07:56:48;21.33;;;8.52;;
70920;SDS011;58572;48.110;19.838;2023-03-04T07:59:15;21.85;;;8.18;;
70920;SDS011;58572;48.110;19.838;2023-03-04T08:01:42;21.60;;;8.07;;
70920;SDS011;58572;48.110;19.838;2023-03-04T08:04:09;22.50;;;7.63;;
70920;SDS011;58572;48.110;19.838;2023-03-04T08:06:36;20.27;;;7.68;;
70920;SDS011;58572;48.110;19.838;2023-03-04T08:09:05;22.27;;;7.75;;
70920;SDS011;58572;48.110;19.838;2023-03-04T08:11:36;19.40;;;7.53;;
70920;SDS011;58572;48.110;19.838;2023-03-04T08:14:03;26.23;;;9.70;;
70920;SDS011;58572;48.110;19.838;2023-03-04T08:16:30;19.15;;;8.45;;
70920;SDS011;58572;48.110;19.838;2023-03-04T08:18:59;20.60;;;8.32;;
70920;SDS011;58572;48.110;19.838;2023-03-04T08:21:28;23.85;;;8.75;;
70920;SDS011;58572;48.110;19.838;2023-03-04T08:23:56;17.50;;;7.28;;
70920;SDS011;58572;48.110;19.838;2023-03-04T08:26:24;24.70;;;9.02;;
70920;SDS011;58572;48.110;19.838;2023-03-04T08:28:54;13.82;;;5.30;;
70920;SDS011;58572;48.110;19.838;2023-03-04T08:31:22;21.70;;;7.63;;
70920;SDS011;58572;48.110;19.838;2023-03-04T08:36:17;14.95;;;6.07;;
70920;SDS011;58572;48.110;19.838;2023-03-04T08:38:44;16.80;;;7.10;;
70920;SDS011;58572;48.110;19.838;2023-03-04T08:41:11;22.10;;;7.43;;
70920;SDS011;58572;48.110;19.838;2023-03-04T08:43:39;22.95;;;7.85;;
70920;SDS011;58572;48.110;19.838;2023-03-04T08:46:08;14.70;;;6.18;;
70920;SDS011;58572;48.110;19.838;2023-03-04T08:48:36;18.20;;;6.13;;
70920;SDS011;58572;48.110;19.838;2023-03-04T08:51:06;15.85;;;5.85;;
70920;SDS011;58572;48.110;19.838;2023-03-04T08:53:34;16.88;;;6.05;;
70920;SDS011;58572;48.110;19.838;2023-03-04T08:58:29;15.38;;;5.80;;
70920;SDS011;58572;48.110;19.838;2023-03-04T09:00:57;12.43;;;5.50;;
70920;SDS011;58572;48.110;19.838;2023-03-04T09:03:26;12.32;;;5.78;;
70920;SDS011;58572;48.110;19.838;2023-03-04T09:05:54;16.58;;;5.93;;
70920;SDS011;58572;48.110;19.838;2023-03-04T09:08:21;15.65;;;5.68;;
70920;SDS011;58572;48.110;19.838;2023-03-04T09:10:50;14.20;;;6.07;;
70920;SDS011;58572;48.110;19.838;2023-03-04T09:13:19;12.30;;;5.18;;
70920;SDS011;58572;48.110;19.838;2023-03-04T09:15:47;12.23;;;4.82;;
70920;SDS011;58572;48.110;19.838;2023-03-04T09:18:15;16.65;;;6.57;;
70920;SDS011;58572;48.110;19.838;2023-03-04T09:20:45;12.50;;;5.80;;
70920;SDS011;58572;48.110;19.838;2023-03-04T09:23:12;14.23;;;5.85;;
70920;SDS011;58572;48.110;19.838;2023-03-04T09:25:40;14.65;;;5.93;;
70920;SDS011;58572;48.110;19.838;2023-03-04T09:28:09;14.40;;;6.10;;
70920;SDS011;58572;48.110;19.838;2023-03-04T09:30:37;13.45;;;5.57;;
70920;SDS011;58572;48.110;19.838;2023-03-04T09:33:04;15.98;;;6.32;;
70920;SDS011;58572;48.110;19.838;2023-03-04T09:35:32;12.95;;;5.38;;
70920;SDS011;58572;48.110;19.838;2023-03-04T09:38:00;12.73;;;5.53;;
70920;SDS011;58572;48.110;19.838;2023-03-04T09:40:28;15.82;;;6.43;;
70920;SDS011;58572;48.110;19.838;2023-03-04T09:42:58;13.80;;;5.68;;
70920;SDS011;58572;48.110;19.838;2023-03-04T09:45:30;14.18;;;6.05;;
70920;SDS011;58572;48.110;19.838;2023-03-04T09:48:03;15.18;;;6.15;;
70920;SDS011;58572;48.110;19.838;2023-03-04T09:50:32;13.07;;;5.35;;
70920;SDS011;58572;48.110;19.838;2023-03-04T09:53:11;13.10;;;4.68;;
70920;SDS011;58572;48.110;19.838;2023-03-04T09:55:48;14.10;;;5.90;;
70920;SDS011;58572;48.110;19.838;2023-03-04T09:58:20;14.27;;;6.72;;
70920;SDS011;58572;48.110;19.838;2023-03-04T10:01:00;13.48;;;5.85;;
70920;SDS011;58572;48.110;19.838;2023-03-04T10:03:35;16.05;;;6.90;;
70920;SDS011;58572;48.110;19.838;2023-03-04T10:06:08;15.05;;;6.07;;
70920;SDS011;58572;48.110;19.838;2023-03-04T10:08:41;18.60;;;6.82;;
70920;SDS011;58572;48.110;19.838;2023-03-04T10:11:16;17.45;;;6.50;;
70920;SDS011;58572;48.110;19.838;2023-03-04T10:13:50;11.65;;;4.95;;
70920;SDS011;58572;48.110;19.838;2023-03-04T10:16:24;17.77;;;7.05;;
70920;SDS011;58572;48.110;19.838;2023-03-04T10:18:55;12.07;;;4.03;;
70920;SDS011;58572;48.110;19.838;2023-03-04T10:21:26;14.43;;;6.22;;
70920;SDS011;58572;48.110;19.838;2023-03-04T10:23:59;17.60;;;7.00;;
70920;SDS011;58572;48.110;19.838;2023-03-04T10:28:58;18.42;;;8.13;;
70920;SDS011;58572;48.110;19.838;2023-03-04T10:31:32;20.27;;;8.70;;
70920;SDS011;58572;48.110;19.838;2023-03-04T10:36:43;16.65;;;6.28;;
70920;SDS011;58572;48.110;19.838;2023-03-04T10:39:20;18.42;;;8.35;;
70920;SDS011;58572;48.110;19.838;2023-03-04T10:41:55;16.73;;;7.28;;
70920;SDS011;58572;48.110;19.838;2023-03-04T10:44:26;17.83;;;8.40;;
70920;SDS011;58572;48.110;19.838;2023-03-04T10:47:03;21.63;;;8.70;;
70920;SDS011;58572;48.110;19.838;2023-03-04T10:49:48;12.43;;;5.10;;
70920;SDS011;58572;48.110;19.838;2023-03-04T10:54:51;19.90;;;8.65;;
70920;SDS011;58572;48.110;19.838;2023-03-04T10:57:22;16.90;;;7.75;;
70920;SDS011;58572;48.110;19.838;2023-03-04T10:59:54;16.40;;;8.02;;
70920;SDS011;58572;48.110;19.838;2023-03-04T11:02:22;17.58;;;8.55;;
70920;SDS011;58572;48.110;19.838;2023-03-04T11:04:53;18.40;;;9.20;;
70920;SDS011;58572;48.110;19.838;2023-03-04T11:07:22;20.30;;;10.25;;
70920;SDS011;58572;48.110;19.838;2023-03-04T11:09:52;21.20;;;10.02;;
70920;SDS011;58572;48.110;19.838;2023-03-04T11:12:21;25.08;;;11.55;;
70920;SDS011;58572;48.110;19.838;2023-03-04T11:14:58;21.77;;;10.10;;
70920;SDS011;58572;48.110;19.838;2023-03-04T11:17:26;15.88;;;8.20;;
70920;SDS011;58572;48.110;19.838;2023-03-04T11:19:55;22.63;;;10.18;;
70920;SDS011;58572;48.110;19.838;2023-03-04T11:22:26;19.00;;;9.57;;
70920;SDS011;58572;48.110;19.838;2023-03-04T11:25:00;17.38;;;8.07;;
70920;SDS011;58572;48.110;19.838;2023-03-04T11:27:36;18.30;;;9.52;;
70920;SDS011;58572;48.110;19.838;2023-03-04T11:30:24;17.45;;;8.02;;
70920;SDS011;58572;48.110;19.838;2023-03-04T11:33:00;21.73;;;9.43;;
70920;SDS011;58572;48.110;19.838;2023-03-04T11:35:38;15.45;;;6.85;;
70920;SDS011;58572;48.110;19.838;2023-03-04T11:38:14;23.80;;;10.45;;
70920;SDS011;58572;48.110;19.838;2023-03-04T11:40:46;15.95;;;7.70;;
70920;SDS011;58572;48.110;19.838;2023-03-04T11:43:18;13.43;;;6.30;;
70920;SDS011;58572;48.110;19.838;2023-03-04T11:46:01;18.20;;;9.32;;
70920;SDS011;58572;48.110;19.838;2023-03-04T11:48:48;12.63;;;6.38;;
70920;SDS011;58572;48.110;19.838;2023-03-04T11:51:26;14.10;;;7.60;;
70920;SDS011;58572;48.110;19.838;2023-03-04T11:54:07;15.73;;;7.13;;
70920;SDS011;58572;48.110;19.838;2023-03-04T11:56:44;15.93;;;7.10;;
70920;SDS011;58572;48.110;19.838;2023-03-04T11:59:33;13.45;;;6.53;;
70920;SDS011;58572;48.110;19.838;2023-03-04T12:02:14;19.25;;;6.97;;
70920;SDS011;58572;48.110;19.838;2023-03-04T12:10:34;20.70;;;7.45;;
70920;SDS011;58572;48.110;19.838;2023-03-04T12:16:10;14.88;;;6.85;;
70920;SDS011;58572;48.110;19.838;2023-03-04T12:18:51;12.07;;;6.22;;
70920;SDS011;58572;48.110;19.838;2023-03-04T12:21:32;11.90;;;4.10;;
70920;SDS011;58572;48.110;19.838;2023-03-04T12:24:28;8.50;;;4.13;;
70920;SDS011;58572;48.110;19.838;2023-03-04T12:27:10;13.70;;;6.20;;
70920;SDS011;58572;48.110;19.838;2023-03-04T12:29:50;12.95;;;6.43;;
70920;SDS011;58572;48.110;19.838;2023-03-04T12:32:23;15.73;;;6.95;;
70920;SDS011;58572;48.110;19.838;2023-03-04T12:35:04;18.42;;;7.88;;
70920;SDS011;58572;48.110;19.838;2023-03-04T12:37:48;17.05;;;7.45;;
70920;SDS011;58572;48.110;19.838;2023-03-04T12:40:29;14.05;;;7.28;;
70920;SDS011;58572;48.110;19.838;2023-03-04T12:43:07;21.35;;;7.70;;
70920;SDS011;58572;48.110;19.838;2023-03-04T12:45:51;13.18;;;6.93;;
70920;SDS011;58572;48.110;19.838;2023-03-04T12:48:26;16.95;;;7.65;;
70920;SDS011;58572;48.110;19.838;2023-03-04T12:51:01;15.82;;;7.10;;
70920;SDS011;58572;48.110;19.838;2023-03-04T12:53:40;15.85;;;6.68;;
70920;SDS011;58572;48.110;19.838;2023-03-04T12:56:20;16.40;;;7.70;;
70920;SDS011;58572;48.110;19.838;2023-03-04T12:58:50;16.00;;;7.75;;
70920;SDS011;58572;48.110;19.838;2023-03-04T13:01:22;17.30;;;7.85;;
70920;SDS011;58572;48.110;19.838;2023-03-04T13:06:28;17.00;;;7.22;;
70920;SDS011;58572;48.110;19.838;2023-03-04T13:09:11;17.25;;;8.02;;
70920;SDS011;58572;48.110;19.838;2023-03-04T13:11:51;17.35;;;7.88;;
70920;SDS011;58572;48.110;19.838;2023-03-04T13:14:23;19.73;;;8.45;;
70920;SDS011;58572;48.110;19.838;2023-03-04T13:16:54;17.02;;;8.48;;
70920;SDS011;58572;48.110;19.838;2023-03-04T13:22:29;16.33;;;7.10;;
70920;SDS011;58572;48.110;19.838;2023-03-04T13:28:14;13.43;;;6.10;;
70920;SDS011;58572;48.110;19.838;2023-03-04T13:33:46;14.07;;;6.57;;
70920;SDS011;58572;48.110;19.838;2023-03-04T13:39:30;15.85;;;7.65;;
70920;SDS011;58572;48.110;19.838;2023-03-04T13:42:01;16.35;;;7.63;;
70920;SDS011;58572;48.110;19.838;2023-03-04T13:50:28;10.88;;;5.53;;
70920;SDS011;58572;48.110;19.838;2023-03-04T13:56:02;14.52;;;6.05;;
70920;SDS011;58572;48.110;19.838;2023-03-04T13:58:49;16.17;;;6.65;;
70920;SDS011;58572;48.110;19.838;2023-03-04T14:01:21;16.83;;;6.78;;
70920;SDS011;58572;48.110;19.838;2023-03-04T14:03:51;17.20;;;7.60;;
70920;SDS011;58572;48.110;19.838;2023-03-04T14:06:21;14.50;;;7.20;;
70920;SDS011;58572;48.110;19.838;2023-03-04T14:08:49;18.33;;;7.63;;
70920;SDS011;58572;48.110;19.838;2023-03-04T14:11:21;33.83;;;10.63;;
70920;SDS011;58572;48.110;19.838;2023-03-04T14:13:51;16.88;;;4.55;;
70920;SDS011;58572;48.110;19.838;2023-03-04T14:16:21;31.70;;;12.35;;
70920;SDS011;58572;48.110;19.838;2023-03-04T14:18:55;26.67;;;8.85;;
70920;SDS011;58572;48.110;19.838;2023-03-04T14:21:28;22.33;;;8.35;;
70920;SDS011;58572;48.110;19.838;2023-03-04T14:24:00;18.38;;;6.88;;
70920;SDS011;58572;48.110;19.838;2023-03-04T14:26:30;16.65;;;7.28;;
70920;SDS011;58572;48.110;19.838;2023-03-04T14:28:57;17.20;;;7.50;;
70920;SDS011;58572;48.110;19.838;2023-03-04T14:31:27;14.82;;;7.13;;
70920;SDS011;58572;48.110;19.838;2023-03-04T14:33:55;26.48;;;10.50;;
70920;SDS011;58572;48.110;19.838;2023-03-04T14:36:27;17.52;;;7.25;;
70920;SDS011;58572;48.110;19.838;2023-03-04T14:38:58;15.77;;;4.50;;
70920;SDS011;58572;48.110;19.838;2023-03-04T14:41:28;17.40;;;7.55;;
70920;SDS011;58572;48.110;19.838;2023-03-04T14:44:01;20.52;;;8.27;;
70920;SDS011;58572;48.110;19.838;2023-03-04T14:46:33;26.27;;;7.38;;
70920;SDS011;58572;48.110;19.838;2023-03-04T14:49:04;20.15;;;9.05;;
70920;SDS011;58572;48.110;19.838;2023-03-04T14:51:37;21.15;;;9.75;;
70920;SDS011;58572;48.110;19.838;2023-03-04T14:56:53;16.60;;;7.22;;
70920;SDS011;58572;48.110;19.838;2023-03-04T14:59:26;19.85;;;8.18;;
70920;SDS011;58572;48.110;19.838;2023-03-04T15:02:07;19.52;;;8.77;;
70920;SDS011;58572;48.110;19.838;2023-03-04T15:04:43;11.80;;;4.70;;
70920;SDS011;58572;48.110;19.838;2023-03-04T15:07:15;15.85;;;6.78;;
70920;SDS011;58572;48.110;19.838;2023-03-04T15:09:50;18.10;;;7.18;;
70920;SDS011;58572;48.110;19.838;2023-03-04T15:12:23;15.95;;;7.60;;
70920;SDS011;58572;48.110;19.838;2023-03-04T15:14:53;20.45;;;9.32;;
70920;SDS011;58572;48.110;19.838;2023-03-04T15:17:23;18.45;;;7.90;;
70920;SDS011;58572;48.110;19.838;2023-03-04T15:20:00;18.40;;;8.18;;
70920;SDS011;58572;48.110;19.838;2023-03-04T15:23:01;23.58;;;9.63;;
70920;SDS011;58572;48.110;19.838;2023-03-04T15:25:31;19.50;;;7.95;;
70920;SDS011;58572;48.110;19.838;2023-03-04T15:27:59;19.48;;;7.47;;
70920;SDS011;58572;48.110;19.838;2023-03-04T15:30:29;15.20;;;7.68;;
70920;SDS011;58572;48.110;19.838;2023-03-04T15:32:58;17.95;;;7.80;;